createdAt,value
2019-05-25T00:00:22.267Z,13.95
2019-05-25T00:02:54.791Z,14.01
2019-05-25T00:05:27.645Z,13.99
2019-05-25T00:08:00.323Z,13.95
2019-05-25T00:10:32.862Z,13.84
2019-05-25T00:13:05.339Z,13.84
2019-05-25T00:15:37.808Z,14.05
2019-05-25T00:18:10.435Z,14.06
2019-05-25T00:20:43.010Z,14.05
2019-05-25T00:23:17.311Z,14.04
2019-05-25T00:25:50.276Z,14.01
2019-05-25T00:28:22.772Z,13.93
2019-05-25T00:30:55.297Z,13.93
2019-05-25T00:33:27.877Z,13.77
2019-05-25T00:36:00.471Z,13.77
2019-05-25T00:38:33.374Z,13.74
2019-05-25T00:41:05.577Z,13.69
2019-05-25T00:43:44.283Z,13.60
2019-05-25T00:46:16.248Z,13.47
2019-05-25T00:48:49.654Z,13.47
2019-05-25T00:51:22.366Z,13.44
2019-05-25T00:53:54.823Z,13.35
2019-05-25T00:56:29.164Z,13.35
2019-05-25T00:59:01.626Z,13.33
2019-05-25T01:01:34.286Z,13.27
2019-05-25T01:04:06.890Z,13.13
2019-05-25T01:06:39.785Z,13.13
2019-05-25T01:09:12.320Z,13.08
2019-05-25T01:11:46.256Z,13.07
2019-05-25T01:14:18.643Z,13.00
2019-05-25T01:16:51.370Z,12.98
2019-05-25T01:19:24.054Z,13.03
2019-05-25T01:21:56.708Z,13.01
2019-05-25T01:24:43.420Z,13.01
2019-05-25T01:27:03.606Z,13.04
2019-05-25T01:29:36.325Z,13.06
2019-05-25T01:32:09.309Z,13.06
2019-05-25T01:34:41.759Z,13.06
2019-05-25T01:37:17.297Z,13.06
2019-05-25T01:39:49.701Z,13.09
2019-05-25T01:42:22.582Z,13.09
2019-05-25T01:44:55.298Z,13.16
2019-05-25T01:47:28.367Z,13.19
2019-05-25T01:50:00.549Z,13.17
2019-05-25T01:52:34.298Z,13.16
2019-05-25T01:55:09.293Z,13.13
2019-05-25T01:57:41.835Z,13.13
2019-05-25T02:00:14.220Z,13.13
2019-05-25T02:02:46.879Z,13.06
2019-05-25T02:05:19.779Z,13.06
2019-05-25T02:07:52.818Z,13.11
2019-05-25T02:10:26.864Z,13.04
2019-05-25T02:12:59.430Z,12.99
2019-05-25T02:15:32.283Z,12.97
2019-05-25T02:18:04.786Z,12.94
2019-05-25T02:20:38.870Z,12.94
2019-05-25T02:23:11.509Z,12.96
2019-05-25T02:25:43.840Z,12.94
2019-05-25T02:28:17.195Z,12.96
2019-05-25T02:30:50.766Z,12.98
2019-05-25T02:33:23.331Z,12.98
2019-05-25T02:35:55.715Z,12.96
2019-05-25T02:38:28.294Z,12.96
2019-05-25T02:41:01.345Z,12.96
2019-05-25T02:43:33.807Z,12.76
2019-05-25T02:46:06.601Z,12.76
2019-05-25T02:48:39.282Z,12.90
2019-05-25T02:51:14.974Z,12.76
2019-05-25T02:53:47.647Z,12.76
2019-05-25T02:56:20.289Z,12.89
2019-05-25T02:58:53.329Z,12.87
2019-05-25T03:01:26.129Z,12.84
2019-05-25T03:03:58.661Z,12.84
2019-05-25T03:06:31.565Z,12.82
2019-05-25T03:09:07.300Z,12.84
2019-05-25T03:11:41.797Z,12.91
2019-05-25T03:14:19.300Z,12.91
2019-05-25T03:16:51.817Z,12.93
2019-05-25T03:19:24.389Z,12.93
2019-05-25T03:21:56.726Z,12.86
2019-05-25T03:24:29.341Z,12.86
2019-05-25T03:27:02.294Z,12.97
2019-05-25T03:29:35.298Z,12.95
2019-05-25T03:32:08.027Z,12.95
2019-05-25T03:34:42.410Z,12.99
2019-05-25T03:37:15.362Z,12.99
2019-05-25T03:39:48.794Z,12.97
2019-05-25T03:42:21.495Z,12.97
2019-05-25T03:44:55.429Z,12.92
2019-05-25T03:47:28.291Z,12.95
2019-05-25T03:50:01.826Z,12.77
2019-05-25T03:52:34.369Z,12.77
2019-05-25T03:55:11.282Z,12.96
2019-05-25T03:57:43.883Z,12.99
2019-05-25T04:00:21.793Z,12.99
2019-05-25T04:02:54.302Z,13.00
2019-05-25T04:05:26.733Z,12.94
2019-05-25T04:07:59.293Z,12.94
2019-05-25T04:10:33.521Z,13.06
2019-05-25T04:13:06.391Z,13.14
2019-05-25T04:15:41.867Z,13.14
2019-05-25T04:18:17.537Z,13.24
2019-05-25T04:20:51.830Z,13.28
2019-05-25T04:23:24.285Z,13.37
2019-05-25T04:25:56.867Z,13.51
2019-05-25T04:28:29.333Z,13.51
2019-05-25T04:31:03.294Z,13.57
2019-05-25T04:33:35.630Z,13.46
2019-05-25T04:36:39.847Z,13.46
2019-05-25T04:39:12.298Z,13.65
2019-05-25T04:41:44.605Z,13.72
2019-05-25T04:44:18.295Z,13.72
2019-05-25T04:46:52.395Z,13.67
2019-05-25T04:49:24.734Z,13.76
2019-05-25T04:51:57.339Z,13.76
2019-05-25T04:57:01.347Z,13.94
2019-05-25T04:59:33.732Z,13.88
2019-05-25T05:02:06.432Z,14.04
2019-05-25T05:04:40.371Z,14.09
2019-05-25T05:07:12.685Z,14.33
2019-05-25T05:09:45.280Z,14.33
2019-05-25T05:12:18.405Z,14.34
2019-05-25T05:14:50.803Z,14.50
2019-05-25T05:17:23.286Z,14.70
2019-05-25T05:19:55.604Z,14.86
2019-05-25T05:22:28.283Z,14.86
2019-05-25T05:25:00.657Z,15.03
2019-05-25T05:27:33.309Z,15.03
2019-05-25T05:30:08.970Z,15.10
2019-05-25T05:32:41.299Z,15.29
2019-05-25T05:35:14.516Z,15.32
2019-05-25T05:37:49.707Z,15.32
2019-05-25T05:40:22.317Z,15.29
2019-05-25T05:42:59.271Z,15.16
2019-05-25T05:45:35.294Z,15.34
2019-05-25T05:48:10.289Z,15.39
2019-05-25T05:50:43.298Z,15.55
2019-05-25T05:53:15.871Z,15.61
2019-05-25T05:55:48.661Z,15.63
2019-05-25T05:58:21.294Z,15.63
2019-05-25T06:00:53.598Z,15.54
2019-05-25T06:03:26.018Z,15.54
2019-05-25T06:05:58.485Z,15.44
2019-05-25T06:08:30.971Z,15.58
2019-05-25T06:11:03.362Z,15.46
2019-05-25T06:13:35.734Z,14.96
2019-05-25T06:16:08.281Z,14.96
2019-05-25T06:18:40.727Z,15.15
2019-05-25T06:21:13.334Z,15.15
2019-05-25T06:23:45.690Z,15.41
2019-05-25T06:26:19.048Z,15.41
2019-05-25T06:28:51.458Z,15.41
2019-05-25T06:31:23.795Z,15.71
2019-05-25T06:33:56.287Z,15.66
2019-05-25T06:36:28.754Z,15.87
2019-05-25T06:39:01.393Z,15.87
2019-05-25T06:41:34.290Z,15.97
2019-05-25T06:44:07.593Z,16.07
2019-05-25T06:46:39.909Z,16.07
2019-05-25T06:49:12.362Z,16.12
2019-05-25T06:51:45.436Z,16.41
2019-05-25T06:54:21.291Z,16.48
2019-05-25T06:56:52.897Z,16.84
2019-05-25T06:59:25.306Z,16.84
2019-05-25T07:01:56.934Z,17.18
2019-05-25T07:04:29.307Z,17.18
2019-05-25T07:07:01.755Z,17.31
2019-05-25T07:09:34.500Z,17.31
2019-05-25T07:12:07.338Z,17.73
2019-05-25T07:14:39.856Z,17.82
2019-05-25T07:17:12.344Z,17.83
2019-05-25T07:19:44.756Z,18.14
2019-05-25T07:22:17.353Z,18.14
2019-05-25T07:24:49.673Z,18.45
2019-05-25T07:27:22.294Z,18.45
2019-05-25T07:29:54.639Z,18.96
2019-05-25T07:32:27.280Z,18.76
2019-05-25T07:34:59.584Z,18.84
2019-05-25T07:37:32.291Z,18.84
2019-05-25T07:40:07.292Z,19.33
2019-05-25T07:42:39.783Z,19.50
2019-05-25T07:45:12.799Z,19.50
2019-05-25T07:47:45.299Z,19.75
2019-05-25T07:50:19.768Z,19.85
2019-05-25T07:52:52.292Z,19.84
2019-05-25T07:55:24.757Z,19.76
2019-05-25T07:57:57.292Z,19.76
2019-05-25T08:00:29.977Z,20.17
2019-05-25T08:03:02.358Z,20.17
2019-05-25T08:05:34.764Z,20.66
2019-05-25T08:08:08.703Z,20.66
2019-05-25T08:10:41.289Z,20.91
2019-05-25T08:13:13.272Z,21.07
2019-05-25T08:15:45.893Z,20.91
2019-05-25T08:18:19.465Z,21.17
2019-05-25T08:20:52.810Z,21.31
2019-05-25T08:23:25.314Z,20.97
2019-05-25T08:25:57.665Z,21.25
2019-05-25T08:28:33.158Z,21.25
2019-05-25T08:31:04.557Z,21.25
2019-05-25T08:33:37.280Z,21.40
2019-05-25T08:36:09.630Z,21.50
2019-05-25T08:38:42.055Z,21.50
2019-05-25T08:41:14.462Z,21.28
2019-05-25T08:43:46.802Z,21.25
2019-05-25T08:46:19.252Z,21.28
2019-05-25T08:48:51.596Z,21.67
2019-05-25T08:51:24.249Z,21.72
2019-05-25T08:53:56.833Z,21.46
2019-05-25T08:56:29.567Z,21.46
2019-05-25T08:59:02.064Z,21.77
2019-05-25T09:01:34.678Z,22.21
2019-05-25T09:04:07.296Z,22.45
2019-05-25T09:06:39.820Z,21.99
2019-05-25T09:09:12.311Z,22.22
2019-05-25T09:11:44.362Z,22.42
2019-05-25T09:14:16.761Z,22.13
2019-05-25T09:16:50.411Z,22.13
2019-05-25T09:19:23.041Z,22.28
2019-05-25T09:22:02.640Z,22.28
2019-05-25T09:24:29.683Z,22.32
2019-05-25T09:27:02.295Z,22.91
2019-05-25T09:29:35.034Z,22.84
2019-05-25T09:32:07.759Z,22.40
2019-05-25T09:34:43.324Z,22.58
2019-05-25T09:37:16.297Z,23.02
2019-05-25T09:39:50.849Z,23.02
2019-05-25T09:42:52.445Z,24.07
2019-05-25T09:45:25.038Z,24.15
2019-05-25T09:47:59.298Z,24.15
2019-05-25T09:50:31.689Z,25.02
2019-05-25T09:53:04.298Z,25.02
2019-05-25T09:55:36.678Z,24.69
2019-05-25T09:58:09.298Z,24.69
2019-05-25T10:00:41.869Z,23.64
2019-05-25T10:03:14.444Z,23.64
2019-05-25T10:05:46.836Z,24.45
2019-05-25T10:08:20.378Z,24.28
2019-05-25T10:10:52.781Z,24.41
2019-05-25T10:13:25.289Z,24.41
2019-05-25T10:15:58.983Z,24.72
2019-05-25T10:18:31.457Z,24.22
2019-05-25T10:21:03.910Z,24.37
2019-05-25T10:23:36.731Z,24.02
2019-05-25T10:26:09.298Z,24.10
2019-05-25T10:28:41.612Z,23.58
2019-05-25T10:31:14.010Z,23.58
2019-05-25T10:33:46.665Z,23.54
2019-05-25T10:39:24.011Z,22.85
2019-05-25T10:41:56.491Z,22.40
2019-05-25T10:44:30.567Z,22.26
2019-05-25T10:47:03.286Z,22.11
2019-05-25T10:49:38.260Z,22.05
2019-05-25T10:52:10.537Z,22.01
2019-05-25T10:54:43.317Z,21.92
2019-05-25T10:57:15.851Z,21.25
2019-05-25T10:59:52.973Z,21.25
2019-05-25T11:02:22.566Z,20.11
2019-05-25T11:04:55.299Z,19.48
2019-05-25T11:07:27.861Z,18.16
2019-05-25T11:12:42.294Z,18.16
2019-05-25T11:15:15.572Z,17.93
2019-05-25T11:18:41.781Z,17.93
2019-05-25T11:21:13.363Z,17.91
2019-05-25T11:23:47.729Z,17.71
2019-05-25T11:26:20.294Z,17.71
2019-05-25T11:28:54.310Z,17.54
2019-05-25T11:31:27.678Z,17.49
2019-05-25T11:34:00.533Z,17.49
2019-05-25T11:36:33.104Z,17.63
2019-05-25T11:39:07.520Z,17.99
2019-05-25T11:41:39.823Z,17.73
2019-05-25T11:44:12.524Z,17.13
2019-05-25T11:46:45.297Z,17.35
2019-05-25T11:49:23.128Z,18.81
2019-05-25T11:52:20.493Z,18.81
2019-05-25T11:55:12.500Z,19.62
2019-05-25T12:01:59.810Z,22.43
2019-05-25T12:04:34.292Z,24.60
2019-05-25T12:07:07.053Z,26.68
2019-05-25T12:09:43.314Z,26.68
2019-05-25T12:12:23.496Z,26.07
2019-05-25T12:16:00.895Z,26.07
2019-05-25T12:18:41.279Z,29.51
2019-05-25T12:21:15.529Z,29.79
2019-05-25T12:23:49.772Z,29.79
2019-05-25T12:26:23.415Z,30.38
2019-05-25T12:28:55.355Z,29.08
2019-05-25T12:31:31.051Z,29.77
2019-05-25T12:34:21.698Z,29.77
2019-05-25T12:36:54.144Z,30.42
2019-05-25T12:40:31.034Z,29.27
2019-05-25T12:43:02.599Z,30.55
2019-05-25T12:45:36.846Z,29.68
2019-05-25T12:48:09.387Z,28.79
2019-05-25T12:50:41.698Z,29.28
2019-05-25T12:53:14.351Z,31.61
2019-05-25T12:55:46.667Z,30.32
2019-05-25T12:58:19.338Z,30.32
2019-05-25T13:00:56.506Z,31.95
2019-05-25T13:03:29.865Z,31.89
2019-05-25T13:06:01.596Z,32.33
2019-05-25T13:08:34.031Z,33.46
2019-05-25T13:11:09.573Z,32.44
2019-05-25T13:13:40.701Z,34.55
2019-05-25T13:16:14.774Z,34.55
2019-05-25T13:18:49.057Z,35.94
2019-05-25T13:21:22.303Z,33.65
2019-05-25T13:23:54.854Z,33.60
2019-05-25T13:26:27.315Z,33.60
2019-05-25T13:28:59.367Z,35.13
2019-05-25T13:31:30.727Z,32.60
2019-05-25T13:34:03.285Z,31.83
2019-05-25T13:36:37.658Z,30.68
2019-05-25T13:39:11.330Z,30.51
2019-05-25T13:41:43.517Z,29.88
2019-05-25T13:44:15.871Z,29.85
2019-05-25T13:46:48.485Z,29.00
2019-05-25T13:49:22.347Z,28.34
2019-05-25T13:51:54.982Z,28.07
2019-05-25T13:54:27.346Z,28.07
2019-05-25T13:57:00.040Z,27.92
2019-05-25T13:59:34.431Z,27.26
2019-05-25T14:02:07.062Z,27.26
2019-05-25T14:04:39.778Z,26.77
2019-05-25T14:07:12.688Z,26.99
2019-05-25T14:09:45.305Z,27.61
2019-05-25T14:12:17.642Z,24.90
2019-05-25T14:16:17.882Z,25.53
2019-05-25T14:18:50.376Z,24.81
2019-05-25T14:21:22.879Z,24.06
2019-05-25T14:23:55.434Z,24.06
2019-05-25T14:26:27.845Z,23.54
2019-05-25T14:29:00.592Z,23.20
2019-05-25T14:31:45.101Z,22.61
2019-05-25T14:34:08.521Z,22.46
2019-05-25T15:22:38.052Z,14.71
2019-05-25T15:25:13.012Z,14.93
2019-05-25T15:27:45.573Z,14.94
2019-05-25T15:30:19.156Z,15.15
2019-05-25T15:32:53.887Z,15.07
2019-05-25T15:35:27.106Z,15.07
2019-05-25T15:38:00.211Z,14.93
2019-05-25T15:40:32.962Z,15.14
2019-05-25T15:43:06.028Z,15.14
2019-05-25T15:45:38.539Z,15.38
2019-05-25T15:48:11.695Z,15.40
2019-05-25T15:50:54.441Z,15.27
2019-05-25T15:53:27.323Z,15.33
2019-05-25T15:56:01.553Z,15.39
2019-05-25T15:58:35.831Z,15.28
2019-05-25T16:01:08.922Z,15.18
2019-05-25T16:03:42.192Z,15.32
2019-05-25T16:06:15.200Z,15.23
2019-05-25T16:08:48.482Z,15.14
2019-05-25T16:11:20.181Z,15.27
2019-05-25T16:13:52.747Z,14.84
2019-05-25T16:16:29.645Z,15.03
2019-05-25T16:18:58.668Z,15.26
2019-05-25T16:21:32.021Z,14.69
2019-05-25T16:24:08.038Z,14.35
2019-05-25T16:26:46.157Z,15.07
2019-05-25T16:29:12.611Z,15.49
2019-05-25T16:31:45.341Z,15.62
2019-05-25T16:34:17.233Z,15.59
2019-05-25T16:40:00.358Z,15.92
2019-05-25T16:42:32.892Z,15.36
2019-05-25T16:45:07.313Z,15.36
2019-05-25T16:47:39.724Z,15.75
2019-05-25T16:50:14.914Z,15.75
2019-05-25T16:52:49.699Z,15.63
2019-05-25T16:55:24.035Z,15.59
2019-05-25T16:57:56.524Z,15.90
2019-05-25T17:00:31.301Z,16.28
2019-05-25T17:03:03.810Z,16.69
2019-05-25T17:05:36.395Z,16.69
2019-05-25T17:08:08.054Z,16.42
2019-05-25T17:10:41.437Z,16.42
2019-05-25T17:13:14.303Z,16.54
2019-05-25T17:15:48.513Z,16.07
2019-05-25T17:18:22.336Z,15.64
2019-05-25T17:20:59.853Z,15.58
2019-05-25T17:23:36.370Z,15.36
2019-05-25T17:26:10.070Z,15.08
2019-05-25T17:28:43.465Z,15.56
2019-05-25T17:31:19.346Z,15.92
2019-05-25T17:33:52.555Z,15.59
2019-05-25T17:36:25.319Z,15.28
2019-05-25T17:38:58.010Z,15.22
2019-05-25T17:41:30.958Z,15.22
2019-05-25T17:44:03.911Z,15.54
2019-05-25T17:46:36.665Z,15.52
2019-05-25T17:49:09.483Z,15.67
2019-05-25T17:51:42.302Z,15.78
2019-05-25T17:54:14.861Z,15.76
2019-05-25T17:56:47.374Z,15.76
2019-05-25T17:59:21.705Z,15.84
2019-05-25T18:01:55.357Z,15.92
2019-05-25T18:04:28.085Z,15.42
2019-05-25T18:07:00.718Z,15.42
2019-05-25T18:09:33.303Z,15.85
2019-05-25T18:12:06.385Z,15.73
2019-05-25T18:14:39.039Z,15.73
2019-05-25T18:17:11.715Z,15.50
2019-05-25T18:19:46.316Z,15.83
2019-05-25T18:22:18.869Z,15.65
2019-05-25T18:27:35.732Z,15.78
2019-05-25T18:30:11.637Z,15.75
2019-05-25T18:32:44.308Z,15.56
2019-05-25T18:35:17.067Z,15.67
2019-05-25T18:37:49.746Z,15.67
2019-05-25T18:40:22.709Z,15.73
2019-05-25T18:42:55.301Z,15.59
2019-05-25T18:45:28.298Z,15.64
2019-05-25T18:48:00.618Z,15.56
2019-05-25T18:50:33.299Z,15.56
2019-05-25T18:53:05.940Z,15.35
2019-05-25T18:55:37.759Z,15.35
2019-05-25T18:58:12.977Z,15.03
2019-05-25T19:00:45.455Z,15.03
2019-05-25T19:03:18.292Z,14.81
2019-05-25T19:05:50.726Z,14.70
2019-05-25T19:11:10.495Z,14.83
2019-05-25T19:13:43.295Z,14.72
2019-05-25T19:16:15.661Z,14.62
2019-05-25T19:18:47.588Z,14.52
2019-05-25T19:21:19.266Z,14.48
2019-05-25T19:23:51.765Z,14.27
2019-05-25T19:26:25.448Z,14.27
2019-05-25T19:28:58.309Z,14.16
2019-05-25T19:31:30.818Z,13.83
2019-05-25T19:34:03.686Z,13.83
2019-05-25T19:36:36.652Z,13.96
2019-05-25T19:39:10.677Z,13.84
2019-05-25T19:41:43.386Z,13.57
2019-05-25T19:44:16.289Z,13.50
2019-05-25T19:46:49.018Z,13.41
2019-05-25T19:49:21.633Z,13.41
2019-05-25T19:51:55.529Z,13.44
2019-05-25T19:54:28.567Z,13.39
2019-05-25T19:57:01.335Z,13.31
2019-05-25T19:59:33.829Z,13.20
2019-05-25T20:02:06.808Z,13.20
2019-05-25T20:04:40.970Z,13.18
2019-05-25T20:07:16.629Z,13.20
2019-05-25T20:09:49.806Z,13.17
2019-05-25T20:12:22.340Z,13.18
2019-05-25T20:14:55.496Z,13.06
2019-05-25T20:17:28.144Z,13.11
2019-05-25T20:20:00.819Z,13.07
2019-05-25T20:22:33.475Z,13.03
2019-05-25T20:25:10.056Z,12.94
2019-05-25T20:27:42.582Z,12.82
2019-05-25T20:30:15.313Z,12.96
2019-05-25T20:32:47.827Z,12.88
2019-05-25T20:35:32.250Z,12.88
2019-05-25T20:37:55.628Z,12.93
2019-05-25T20:40:28.250Z,12.85
2019-05-25T20:43:00.717Z,12.91
2019-05-25T20:47:43.642Z,12.84
2019-05-25T20:50:18.313Z,12.86
2019-05-25T20:52:50.868Z,12.77
2019-05-25T20:55:23.444Z,12.62
2019-05-25T20:57:56.302Z,12.67
2019-05-25T21:00:29.746Z,12.61
2019-05-25T21:03:06.367Z,12.61
2019-05-25T21:05:49.605Z,12.45
2019-05-25T21:08:12.845Z,12.45
2019-05-25T21:10:48.484Z,12.41
2019-05-25T21:13:22.316Z,12.39
2019-05-25T21:15:55.882Z,12.29
2019-05-25T21:18:28.359Z,12.35
2019-05-25T21:21:00.917Z,12.40
2019-05-25T21:23:34.861Z,12.34
2019-05-25T21:26:07.662Z,12.32
2019-05-25T21:28:40.497Z,12.31
2019-05-25T21:31:13.330Z,12.30
2019-05-25T21:33:45.294Z,12.08
2019-05-25T21:36:19.770Z,12.08
2019-05-25T21:38:51.866Z,12.12
2019-05-25T21:41:26.315Z,12.03
2019-05-25T21:43:58.901Z,11.95
2019-05-25T21:48:23.709Z,12.04
2019-05-25T21:50:56.538Z,11.95
2019-05-25T21:53:29.264Z,11.96
2019-05-25T21:56:01.321Z,11.93
2019-05-25T21:58:36.881Z,11.79
2019-05-25T22:01:10.311Z,11.79
2019-05-25T22:03:42.666Z,11.68
2019-05-25T22:06:23.876Z,11.68
2019-05-25T22:08:49.586Z,11.65
2019-05-25T22:11:24.856Z,11.67
2019-05-25T22:13:57.552Z,11.56
2019-05-25T22:16:34.167Z,11.66
2019-05-25T22:19:06.702Z,11.67
2019-05-25T22:21:39.283Z,11.62
2019-05-25T22:24:20.293Z,11.36
2019-05-25T22:26:54.703Z,11.42
2019-05-25T22:29:28.291Z,11.42
2019-05-25T22:32:00.975Z,11.43
2019-05-25T22:34:36.343Z,11.43
2019-05-25T22:37:11.452Z,11.34
2019-05-25T22:39:57.586Z,11.34
2019-05-25T22:42:58.826Z,11.36
2019-05-25T22:45:58.901Z,11.35
2019-05-25T22:48:34.672Z,11.19
2019-05-25T22:51:08.989Z,11.11
2019-05-25T22:53:41.878Z,11.01
2019-05-25T22:56:17.338Z,10.93
2019-05-25T22:58:57.653Z,10.84
2019-05-25T23:01:32.126Z,10.87
2019-05-25T23:04:08.525Z,10.77
2019-05-25T23:06:57.156Z,10.75
2019-05-25T23:09:25.700Z,10.69
2019-05-25T23:11:57.301Z,10.59
2019-05-25T23:14:29.824Z,10.51
2019-05-25T23:17:03.014Z,10.51
2019-05-25T23:19:35.867Z,10.61
2019-05-25T23:22:08.507Z,10.58
2019-05-25T23:24:42.523Z,10.59
2019-05-25T23:27:21.420Z,10.56
2019-05-25T23:30:03.298Z,10.50
2019-05-25T23:32:36.050Z,10.46
2019-05-25T23:35:19.299Z,10.46
2019-05-25T23:37:51.685Z,10.39
2019-05-25T23:40:26.291Z,10.39
2019-05-25T23:43:00.773Z,10.34
2019-05-25T23:45:34.355Z,10.34
2019-05-25T23:48:08.587Z,10.37
2019-05-25T23:50:40.878Z,10.31
2019-05-25T23:53:13.356Z,10.24
2019-05-25T23:55:48.410Z,10.10
2019-05-25T23:58:22.381Z,10.10
